Ana Sayfa
METAR-TAF:

METAR-TAF

Havaalanları :

Sandberg, Kaliforniya, Amerika Birleşik Devletleri

Enlem: 34-44-37N, Boylam: 118-43-28W, yükseklik: 1378 m

Güncel hava durumu gözlemi

Rapor saat 07:53 UTC de 15 dakika önce yapıldı.
Rüzgar kuzey/kuzeybatıdan 15 kt ve 24 kt'a kadar ani rüzgarlar
Sıcaklık 4°C
Nem 87%
Basınç 1021 hPa
Görüş mesafesi: 16.1 km
Açık gökyüzü

METAR: KSDB 290753Z AUTO 34015G24KT 10SM CLR 04/02 A3014 RMK AO2 SLP188 T00440017 401280039

Saat: 00:08 (08:08 UTC)


TAF: eksik

4.000'den fazla havaalanı için hava durumu gözlemleri ve tahminleri (METAR ve TAF raporları).

Kullanılabilir istasyonlar harita üzerinde sarı ve kırmızı noktalarla gösterilir.

İstasyonun adını görmek için fareyi noktanın üzerinde gezdirin.

Sonrasında hava gözlem ve tahminlerini görmek için tıklayın.

Haritayı değiştirmek için: yaklaştırmak için siyah artı işaretli yeşil düğmeye ve uzaklaştırmak için de eksi işaretli düğmeye hızla tıklayın; bitişik haritalar için yeşil okları kullanın.


METAR-TAF: